createdAt,value
2022-08-17T00:03:51.159Z,100.00
2022-08-17T00:13:58.714Z,100.00
2022-08-17T00:24:05.828Z,100.00
2022-08-17T00:34:15.997Z,100.00
2022-08-17T00:44:23.051Z,100.00
2022-08-17T00:54:41.037Z,100.00
2022-08-17T01:04:47.871Z,100.00
2022-08-17T01:14:55.098Z,100.00
2022-08-17T01:25:02.327Z,100.00
2022-08-17T01:35:11.095Z,100.00
2022-08-17T01:45:18.580Z,100.00
2022-08-17T01:56:47.153Z,100.00
2022-08-17T02:08:19.859Z,100.00
2022-08-17T02:18:24.756Z,100.00
2022-08-17T02:28:32.068Z,100.00
2022-08-17T02:39:58.805Z,100.00
2022-08-17T02:51:25.028Z,100.00
2022-08-17T03:06:49.130Z,100.00
2022-08-17T03:16:54.109Z,100.00
2022-08-17T03:28:21.109Z,100.00
2022-08-17T03:39:47.082Z,100.00
2022-08-17T03:49:53.346Z,100.00
2022-08-17T04:00:00.424Z,100.00
2022-08-17T04:11:27.450Z,100.00
2022-08-17T04:21:36.052Z,100.00
2022-08-17T04:31:43.515Z,100.00
2022-08-17T04:41:53.632Z,100.00
2022-08-17T04:53:20.421Z,100.00
2022-08-17T05:04:47.413Z,100.00
2022-08-17T05:14:54.402Z,100.00
2022-08-17T05:25:02.806Z,100.00
2022-08-17T05:36:42.517Z,100.00
2022-08-17T05:46:41.980Z,100.00
2022-08-17T06:00:49.212Z,100.00
2022-08-17T06:10:55.835Z,100.00
2022-08-17T06:21:04.136Z,100.00
2022-08-17T06:32:31.815Z,100.00
2022-08-17T06:42:59.945Z,95.78
2022-08-17T06:52:53.694Z,86.52
2022-08-17T07:03:01.676Z,80.36
2022-08-17T07:59:34.480Z,33.87
2022-08-17T08:22:59.344Z,30.08
2022-08-17T08:33:05.416Z,30.58
2022-08-17T08:45:55.804Z,28.86
2022-08-17T08:57:29.038Z,26.60
2022-08-17T09:07:34.276Z,26.16
2022-08-17T09:28:20.036Z,25.68
2022-08-17T09:43:44.117Z,27.58
2022-08-17T09:55:12.105Z,28.08
2022-08-17T10:10:42.203Z,27.91
2022-08-17T10:22:14.740Z,25.82
2022-08-17T10:32:30.998Z,29.73
2022-08-17T10:44:38.415Z,28.71
2022-08-17T10:54:12.103Z,28.17
2022-08-17T11:18:54.954Z,25.72
2022-08-17T11:31:43.921Z,25.73
2022-08-17T11:53:48.074Z,24.26
2022-08-17T12:05:15.372Z,25.94
2022-08-17T12:18:02.260Z,23.48
2022-08-17T12:29:35.600Z,24.11
2022-08-17T12:43:43.899Z,24.51
2022-08-17T12:55:10.030Z,29.89
2022-08-17T13:06:36.140Z,28.95
2022-08-17T13:26:09.547Z,29.31
2022-08-17T14:57:23.086Z,30.87
2022-08-17T15:28:35.225Z,31.75
2022-08-17T15:38:41.358Z,33.23
2022-08-17T15:48:52.299Z,39.16
2022-08-17T16:00:19.507Z,33.74
2022-08-17T16:10:35.000Z,31.13
2022-08-17T16:21:58.766Z,32.39
2022-08-17T17:13:11.782Z,40.08
2022-08-17T17:23:17.416Z,48.29
2022-08-17T17:33:24.747Z,49.67
2022-08-17T17:47:30.827Z,53.26
2022-08-17T17:58:59.622Z,51.20
2022-08-17T18:22:24.149Z,56.38
2022-08-17T18:39:06.577Z,56.70
2022-08-17T18:50:31.629Z,62.73
2022-08-17T19:37:48.656Z,70.04
2022-08-17T20:10:25.942Z,70.70
2022-08-17T20:25:49.337Z,65.68
2022-08-17T20:41:13.005Z,67.28
2022-08-17T21:01:54.711Z,71.00
2022-08-17T21:12:03.010Z,72.63
2022-08-17T21:26:11.564Z,75.45
2022-08-17T21:36:17.877Z,77.06
2022-08-17T21:46:25.584Z,78.63
2022-08-17T22:05:49.612Z,80.94
2022-08-17T22:19:54.195Z,84.55
2022-08-17T22:32:39.348Z,87.98
2022-08-17T22:42:45.405Z,89.01
2022-08-17T23:51:06.462Z,89.65
